sensor_id;sensor_type;location;lat;lon;timestamp;temperature;humidity
13796;SHT30;40911;51.552;9.874;2023-08-31T00:01:37;13.65;94.48
13796;SHT30;40911;51.552;9.874;2023-08-31T00:03:59;13.55;94.51
13796;SHT30;40911;51.552;9.874;2023-08-31T00:06:21;13.65;94.32
13796;SHT30;40911;51.552;9.874;2023-08-31T00:08:43;13.67;94.23
13796;SHT30;40911;51.552;9.874;2023-08-31T00:11:05;13.57;94.16
13796;SHT30;40911;51.552;9.874;2023-08-31T00:13:27;13.51;93.97
13796;SHT30;40911;51.552;9.874;2023-08-31T00:15:49;13.36;94.60
13796;SHT30;40911;51.552;9.874;2023-08-31T00:18:11;13.34;94.59
13796;SHT30;40911;51.552;9.874;2023-08-31T00:20:33;13.30;94.77
13796;SHT30;40911;51.552;9.874;2023-08-31T00:22:54;13.26;94.59
13796;SHT30;40911;51.552;9.874;2023-08-31T00:25:15;13.22;94.32
13796;SHT30;40911;51.552;9.874;2023-08-31T00:27:37;13.26;94.23
13796;SHT30;40911;51.552;9.874;2023-08-31T00:30:01;13.20;94.44
13796;SHT30;40911;51.552;9.874;2023-08-31T00:32:22;13.16;94.81
13796;SHT30;40911;51.552;9.874;2023-08-31T00:34:45;13.20;94.72
13796;SHT30;40911;51.552;9.874;2023-08-31T00:37:07;13.23;94.47
13796;SHT30;40911;51.552;9.874;2023-08-31T00:39:28;13.22;94.20
13796;SHT30;40911;51.552;9.874;2023-08-31T00:41:53;13.15;94.03
13796;SHT30;40911;51.552;9.874;2023-08-31T00:44:16;13.19;94.05
13796;SHT30;40911;51.552;9.874;2023-08-31T00:46:37;13.11;93.89
13796;SHT30;40911;51.552;9.874;2023-08-31T00:49:00;13.16;94.41
13796;SHT30;40911;51.552;9.874;2023-08-31T00:51:25;12.98;94.38
13796;SHT30;40911;51.552;9.874;2023-08-31T00:53:47;13.05;94.28
13796;SHT30;40911;51.552;9.874;2023-08-31T00:56:10;12.92;94.36
13796;SHT30;40911;51.552;9.874;2023-08-31T00:58:32;12.88;94.32
13796;SHT30;40911;51.552;9.874;2023-08-31T01:00:57;12.81;94.57
13796;SHT30;40911;51.552;9.874;2023-08-31T01:03:26;12.82;94.63
13796;SHT30;40911;51.552;9.874;2023-08-31T01:05:57;12.75;94.72
13796;SHT30;40911;51.552;9.874;2023-08-31T01:08:30;12.72;94.41
13796;SHT30;40911;51.552;9.874;2023-08-31T01:10:57;12.65;94.34
13796;SHT30;40911;51.552;9.874;2023-08-31T01:13:24;12.60;94.68
13796;SHT30;40911;51.552;9.874;2023-08-31T01:15:50;12.61;94.78
13796;SHT30;40911;51.552;9.874;2023-08-31T01:18:16;12.54;94.54
13796;SHT30;40911;51.552;9.874;2023-08-31T01:20:42;12.74;94.20
13796;SHT30;40911;51.552;9.874;2023-08-31T01:23:10;12.60;94.36
13796;SHT30;40911;51.552;9.874;2023-08-31T01:25:34;12.48;94.58
13796;SHT30;40911;51.552;9.874;2023-08-31T01:27:56;12.50;94.55
13796;SHT30;40911;51.552;9.874;2023-08-31T01:30:18;12.54;94.42
13796;SHT30;40911;51.552;9.874;2023-08-31T01:32:42;12.75;93.79
13796;SHT30;40911;51.552;9.874;2023-08-31T01:35:06;12.54;94.14
13796;SHT30;40911;51.552;9.874;2023-08-31T01:40:12;12.54;94.46
13796;SHT30;40911;51.552;9.874;2023-08-31T01:42:37;12.38;94.97
13796;SHT30;40911;51.552;9.874;2023-08-31T01:45:00;12.46;94.91
13796;SHT30;40911;51.552;9.874;2023-08-31T01:47:23;12.48;94.84
13796;SHT30;40911;51.552;9.874;2023-08-31T01:49:46;12.46;94.62
13796;SHT30;40911;51.552;9.874;2023-08-31T01:52:07;12.46;94.67
13796;SHT30;40911;51.552;9.874;2023-08-31T01:54:29;12.38;94.54
13796;SHT30;40911;51.552;9.874;2023-08-31T01:56:50;12.41;94.70
13796;SHT30;40911;51.552;9.874;2023-08-31T01:59:13;12.32;94.43
13796;SHT30;40911;51.552;9.874;2023-08-31T02:01:35;12.32;94.58
13796;SHT30;40911;51.552;9.874;2023-08-31T02:03:57;12.34;94.62
13796;SHT30;40911;51.552;9.874;2023-08-31T02:06:18;12.43;94.45
13796;SHT30;40911;51.552;9.874;2023-08-31T02:08:40;12.46;94.17
13796;SHT30;40911;51.552;9.874;2023-08-31T02:11:04;12.46;94.00
13796;SHT30;40911;51.552;9.874;2023-08-31T02:13:25;12.44;94.35
13796;SHT30;40911;51.552;9.874;2023-08-31T02:15:50;12.40;94.41
13796;SHT30;40911;51.552;9.874;2023-08-31T02:18:12;12.47;94.19
13796;SHT30;40911;51.552;9.874;2023-08-31T02:20:34;12.44;94.46
13796;SHT30;40911;51.552;9.874;2023-08-31T02:22:55;12.43;94.39
13796;SHT30;40911;51.552;9.874;2023-08-31T02:25:17;12.38;94.89
13796;SHT30;40911;51.552;9.874;2023-08-31T02:27:38;12.41;94.62
13796;SHT30;40911;51.552;9.874;2023-08-31T02:30:00;12.37;94.83
13796;SHT30;40911;51.552;9.874;2023-08-31T02:32:26;12.43;94.50
13796;SHT30;40911;51.552;9.874;2023-08-31T02:34:48;12.41;94.81
13796;SHT30;40911;51.552;9.874;2023-08-31T02:37:09;12.38;94.75
13796;SHT30;40911;51.552;9.874;2023-08-31T02:39:31;12.43;94.56
13796;SHT30;40911;51.552;9.874;2023-08-31T02:41:53;12.37;94.59
13796;SHT30;40911;51.552;9.874;2023-08-31T02:44:15;12.36;94.70
13796;SHT30;40911;51.552;9.874;2023-08-31T02:46:36;12.32;95.01
13796;SHT30;40911;51.552;9.874;2023-08-31T02:49:00;12.40;94.48
13796;SHT30;40911;51.552;9.874;2023-08-31T02:51:21;12.33;94.81
13796;SHT30;40911;51.552;9.874;2023-08-31T02:53:43;12.32;94.97
13796;SHT30;40911;51.552;9.874;2023-08-31T02:56:05;12.26;94.95
13796;SHT30;40911;51.552;9.874;2023-08-31T02:58:26;12.29;94.79
13796;SHT30;40911;51.552;9.874;2023-08-31T03:00:48;12.26;94.81
13796;SHT30;40911;51.552;9.874;2023-08-31T03:03:09;12.29;94.72
13796;SHT30;40911;51.552;9.874;2023-08-31T03:05:32;12.27;94.67
13796;SHT30;40911;51.552;9.874;2023-08-31T03:07:54;12.15;95.21
13796;SHT30;40911;51.552;9.874;2023-08-31T03:10:17;12.15;95.11
13796;SHT30;40911;51.552;9.874;2023-08-31T03:12:38;12.15;95.20
13796;SHT30;40911;51.552;9.874;2023-08-31T03:15:00;12.13;94.96
13796;SHT30;40911;51.552;9.874;2023-08-31T03:17:22;12.09;95.04
13796;SHT30;40911;51.552;9.874;2023-08-31T03:19:43;12.05;95.12
13796;SHT30;40911;51.552;9.874;2023-08-31T03:22:07;12.13;94.67
13796;SHT30;40911;51.552;9.874;2023-08-31T03:24:28;12.12;94.66
13796;SHT30;40911;51.552;9.874;2023-08-31T03:26:50;12.06;94.92
13796;SHT30;40911;51.552;9.874;2023-08-31T03:29:11;12.10;94.89
13796;SHT30;40911;51.552;9.874;2023-08-31T03:31:33;12.12;94.75
13796;SHT30;40911;51.552;9.874;2023-08-31T03:33:55;12.13;94.66
13796;SHT30;40911;51.552;9.874;2023-08-31T03:36:16;12.10;94.87
13796;SHT30;40911;51.552;9.874;2023-08-31T03:38:39;12.08;94.79
13796;SHT30;40911;51.552;9.874;2023-08-31T03:41:01;12.09;94.82
13796;SHT30;40911;51.552;9.874;2023-08-31T03:43:23;12.09;94.74
13796;SHT30;40911;51.552;9.874;2023-08-31T03:45:45;12.15;94.59
13796;SHT30;40911;51.552;9.874;2023-08-31T03:48:06;12.17;94.34
13796;SHT30;40911;51.552;9.874;2023-08-31T03:50:28;12.23;94.07
13796;SHT30;40911;51.552;9.874;2023-08-31T03:52:49;12.22;93.99
13796;SHT30;40911;51.552;9.874;2023-08-31T03:55:13;12.27;93.65
13796;SHT30;40911;51.552;9.874;2023-08-31T03:57:35;12.30;93.71
13796;SHT30;40911;51.552;9.874;2023-08-31T03:59:56;12.32;93.44
13796;SHT30;40911;51.552;9.874;2023-08-31T04:02:18;12.34;93.75
13796;SHT30;40911;51.552;9.874;2023-08-31T04:04:40;12.36;93.56
13796;SHT30;40911;51.552;9.874;2023-08-31T04:07:01;12.34;93.63
13796;SHT30;40911;51.552;9.874;2023-08-31T04:09:23;12.36;93.30
13796;SHT30;40911;51.552;9.874;2023-08-31T04:11:46;12.30;93.91
13796;SHT30;40911;51.552;9.874;2023-08-31T04:14:08;12.30;93.94
13796;SHT30;40911;51.552;9.874;2023-08-31T04:16:30;12.33;93.80
13796;SHT30;40911;51.552;9.874;2023-08-31T04:18:51;12.36;93.56
13796;SHT30;40911;51.552;9.874;2023-08-31T04:21:13;12.38;93.33
13796;SHT30;40911;51.552;9.874;2023-08-31T04:23:35;12.37;93.90
13796;SHT30;40911;51.552;9.874;2023-08-31T04:25:56;12.44;93.68
13796;SHT30;40911;51.552;9.874;2023-08-31T04:28:19;12.46;93.20
13796;SHT30;40911;51.552;9.874;2023-08-31T04:30:41;12.50;93.26
13796;SHT30;40911;51.552;9.874;2023-08-31T04:33:04;12.46;94.02
13796;SHT30;40911;51.552;9.874;2023-08-31T04:35:26;12.47;94.03
13796;SHT30;40911;51.552;9.874;2023-08-31T04:37:48;12.53;93.84
13796;SHT30;40911;51.552;9.874;2023-08-31T04:40:10;12.53;94.27
13796;SHT30;40911;51.552;9.874;2023-08-31T04:42:32;12.47;94.36
13796;SHT30;40911;51.552;9.874;2023-08-31T04:44:55;12.46;94.71
13796;SHT30;40911;51.552;9.874;2023-08-31T04:47:17;12.50;95.03
13796;SHT30;40911;51.552;9.874;2023-08-31T04:49:39;12.44;95.36
13796;SHT30;40911;51.552;9.874;2023-08-31T04:52:00;12.37;95.45
13796;SHT30;40911;51.552;9.874;2023-08-31T04:54:22;12.41;95.56
13796;SHT30;40911;51.552;9.874;2023-08-31T04:56:44;12.38;95.78
13796;SHT30;40911;51.552;9.874;2023-08-31T04:59:06;12.40;95.64
13796;SHT30;40911;51.552;9.874;2023-08-31T05:01:28;12.41;95.37
13796;SHT30;40911;51.552;9.874;2023-08-31T05:03:50;12.47;95.23
13796;SHT30;40911;51.552;9.874;2023-08-31T05:06:12;12.44;95.19
13796;SHT30;40911;51.552;9.874;2023-08-31T05:08:34;12.43;95.35
13796;SHT30;40911;51.552;9.874;2023-08-31T05:10:55;12.41;95.32
13796;SHT30;40911;51.552;9.874;2023-08-31T05:13:17;12.41;95.14
13796;SHT30;40911;51.552;9.874;2023-08-31T05:15:39;12.43;95.67
13796;SHT30;40911;51.552;9.874;2023-08-31T05:18:02;12.48;95.68
13796;SHT30;40911;51.552;9.874;2023-08-31T05:20:24;12.41;95.90
13796;SHT30;40911;51.552;9.874;2023-08-31T05:22:45;12.40;95.78
13796;SHT30;40911;51.552;9.874;2023-08-31T05:25:08;12.48;96.04
13796;SHT30;40911;51.552;9.874;2023-08-31T05:27:29;12.58;95.52
13796;SHT30;40911;51.552;9.874;2023-08-31T05:29:51;12.57;95.68
13796;SHT30;40911;51.552;9.874;2023-08-31T05:32:12;12.67;95.80
13796;SHT30;40911;51.552;9.874;2023-08-31T05:34:35;12.68;95.34
13796;SHT30;40911;51.552;9.874;2023-08-31T05:36:59;12.71;95.44
13796;SHT30;40911;51.552;9.874;2023-08-31T05:39:21;12.71;95.69
13796;SHT30;40911;51.552;9.874;2023-08-31T05:41:43;12.72;95.67
13796;SHT30;40911;51.552;9.874;2023-08-31T05:44:05;12.67;95.98
13796;SHT30;40911;51.552;9.874;2023-08-31T05:46:26;12.75;95.63
13796;SHT30;40911;51.552;9.874;2023-08-31T05:48:48;12.72;95.53
13796;SHT30;40911;51.552;9.874;2023-08-31T05:51:11;12.61;95.26
13796;SHT30;40911;51.552;9.874;2023-08-31T05:53:33;12.76;94.70
13796;SHT30;40911;51.552;9.874;2023-08-31T05:55:55;12.93;94.57
13796;SHT30;40911;51.552;9.874;2023-08-31T05:58:23;12.74;94.23
13796;SHT30;40911;51.552;9.874;2023-08-31T06:00:45;12.86;94.07
13796;SHT30;40911;51.552;9.874;2023-08-31T06:03:07;12.99;93.99
13796;SHT30;40911;51.552;9.874;2023-08-31T06:05:29;13.12;93.84
13796;SHT30;40911;51.552;9.874;2023-08-31T06:07:53;13.30;93.61
13796;SHT30;40911;51.552;9.874;2023-08-31T06:10:15;13.44;93.61
13796;SHT30;40911;51.552;9.874;2023-08-31T06:12:37;13.39;93.35
13796;SHT30;40911;51.552;9.874;2023-08-31T06:14:58;13.61;92.89
13796;SHT30;40911;51.552;9.874;2023-08-31T06:17:20;13.44;92.28
13796;SHT30;40911;51.552;9.874;2023-08-31T06:19:42;13.60;91.89
13796;SHT30;40911;51.552;9.874;2023-08-31T06:22:04;13.61;91.83
13796;SHT30;40911;51.552;9.874;2023-08-31T06:24:27;13.67;91.47
13796;SHT30;40911;51.552;9.874;2023-08-31T06:26:49;13.61;90.49
13796;SHT30;40911;51.552;9.874;2023-08-31T06:29:12;13.88;91.23
13796;SHT30;40911;51.552;9.874;2023-08-31T06:31:35;13.81;90.99
13796;SHT30;40911;51.552;9.874;2023-08-31T06:33:57;13.80;90.85
13796;SHT30;40911;51.552;9.874;2023-08-31T06:36:24;14.06;90.38
13796;SHT30;40911;51.552;9.874;2023-08-31T06:38:46;13.91;90.04
13796;SHT30;40911;51.552;9.874;2023-08-31T06:41:09;14.25;89.50
13796;SHT30;40911;51.552;9.874;2023-08-31T06:43:31;13.97;89.64
13796;SHT30;40911;51.552;9.874;2023-08-31T06:45:53;14.16;89.36
13796;SHT30;40911;51.552;9.874;2023-08-31T06:48:14;14.40;89.87
13796;SHT30;40911;51.552;9.874;2023-08-31T06:50:36;14.06;89.02
13796;SHT30;40911;51.552;9.874;2023-08-31T06:52:58;14.64;88.95
13796;SHT30;40911;51.552;9.874;2023-08-31T06:55:19;14.39;88.43
13796;SHT30;40911;51.552;9.874;2023-08-31T06:57:42;14.39;87.37
13796;SHT30;40911;51.552;9.874;2023-08-31T07:00:05;14.08;87.98
13796;SHT30;40911;51.552;9.874;2023-08-31T07:02:28;14.09;89.21
13796;SHT30;40911;51.552;9.874;2023-08-31T07:04:50;14.52;88.63
13796;SHT30;40911;51.552;9.874;2023-08-31T07:07:12;14.99;88.56
13796;SHT30;40911;51.552;9.874;2023-08-31T07:09:34;14.65;86.91
13796;SHT30;40911;51.552;9.874;2023-08-31T07:11:56;14.61;87.65
13796;SHT30;40911;51.552;9.874;2023-08-31T07:14:20;14.92;86.45
13796;SHT30;40911;51.552;9.874;2023-08-31T07:16:42;14.71;86.86
13796;SHT30;40911;51.552;9.874;2023-08-31T07:19:04;14.70;85.95
13796;SHT30;40911;51.552;9.874;2023-08-31T07:21:25;14.41;86.56
13796;SHT30;40911;51.552;9.874;2023-08-31T07:23:47;15.08;86.52
13796;SHT30;40911;51.552;9.874;2023-08-31T07:26:10;15.49;85.01
13796;SHT30;40911;51.552;9.874;2023-08-31T07:28:31;14.95;85.11
13796;SHT30;40911;51.552;9.874;2023-08-31T07:31:02;15.63;84.80
13796;SHT30;40911;51.552;9.874;2023-08-31T07:33:24;15.71;83.76
13796;SHT30;40911;51.552;9.874;2023-08-31T07:35:46;15.69;83.59
13796;SHT30;40911;51.552;9.874;2023-08-31T07:38:08;15.82;82.51
13796;SHT30;40911;51.552;9.874;2023-08-31T07:40:30;15.92;82.44
13796;SHT30;40911;51.552;9.874;2023-08-31T07:42:52;15.49;82.66
13796;SHT30;40911;51.552;9.874;2023-08-31T07:45:13;15.02;82.27
13796;SHT30;40911;51.552;9.874;2023-08-31T07:47:36;15.01;84.15
13796;SHT30;40911;51.552;9.874;2023-08-31T07:49:58;15.47;83.15
13796;SHT30;40911;51.552;9.874;2023-08-31T07:52:20;15.43;83.31
13796;SHT30;40911;51.552;9.874;2023-08-31T07:54:42;15.85;82.51
13796;SHT30;40911;51.552;9.874;2023-08-31T07:57:04;15.52;82.42
13796;SHT30;40911;51.552;9.874;2023-08-31T07:59:26;15.19;83.14
13796;SHT30;40911;51.552;9.874;2023-08-31T08:01:48;15.13;83.79
13796;SHT30;40911;51.552;9.874;2023-08-31T08:04:12;15.13;82.94
13796;SHT30;40911;51.552;9.874;2023-08-31T08:06:38;15.13;83.99
13796;SHT30;40911;51.552;9.874;2023-08-31T08:09:00;15.02;84.51
13796;SHT30;40911;51.552;9.874;2023-08-31T08:11:22;15.04;83.37
13796;SHT30;40911;51.552;9.874;2023-08-31T08:13:43;14.92;83.46
13796;SHT30;40911;51.552;9.874;2023-08-31T08:16:05;15.13;83.21
13796;SHT30;40911;51.552;9.874;2023-08-31T08:18:29;15.01;83.67
13796;SHT30;40911;51.552;9.874;2023-08-31T08:20:53;14.92;82.22
13796;SHT30;40911;51.552;9.874;2023-08-31T08:23:15;15.05;81.67
13796;SHT30;40911;51.552;9.874;2023-08-31T08:25:37;14.84;80.69
13796;SHT30;40911;51.552;9.874;2023-08-31T08:27:58;14.96;81.85
13796;SHT30;40911;51.552;9.874;2023-08-31T08:30:20;14.99;80.14
13796;SHT30;40911;51.552;9.874;2023-08-31T08:32:42;15.01;79.54
13796;SHT30;40911;51.552;9.874;2023-08-31T08:35:04;15.11;79.94
13796;SHT30;40911;51.552;9.874;2023-08-31T08:37:28;15.05;79.98
13796;SHT30;40911;51.552;9.874;2023-08-31T08:39:50;15.19;80.17
13796;SHT30;40911;51.552;9.874;2023-08-31T08:42:12;15.20;79.33
13796;SHT30;40911;51.552;9.874;2023-08-31T08:44:35;15.53;79.42
13796;SHT30;40911;51.552;9.874;2023-08-31T08:47:00;15.90;79.55
13796;SHT30;40911;51.552;9.874;2023-08-31T08:49:23;15.60;78.98
13796;SHT30;40911;51.552;9.874;2023-08-31T08:51:45;15.49;79.74
13796;SHT30;40911;51.552;9.874;2023-08-31T08:54:08;15.50;78.93
13796;SHT30;40911;51.552;9.874;2023-08-31T08:56:30;15.64;78.91
13796;SHT30;40911;51.552;9.874;2023-08-31T08:58:52;15.85;79.49
13796;SHT30;40911;51.552;9.874;2023-08-31T09:01:14;16.38;77.97
13796;SHT30;40911;51.552;9.874;2023-08-31T09:03:38;16.26;78.02
13796;SHT30;40911;51.552;9.874;2023-08-31T09:06:00;15.81;77.96
13796;SHT30;40911;51.552;9.874;2023-08-31T09:08:26;15.84;76.71
13796;SHT30;40911;51.552;9.874;2023-08-31T09:10:49;15.95;76.48
13796;SHT30;40911;51.552;9.874;2023-08-31T09:13:13;16.35;75.22
13796;SHT30;40911;51.552;9.874;2023-08-31T09:15:36;16.42;74.48
13796;SHT30;40911;51.552;9.874;2023-08-31T09:18:00;16.29;75.02
13796;SHT30;40911;51.552;9.874;2023-08-31T09:20:22;16.40;75.94
13796;SHT30;40911;51.552;9.874;2023-08-31T09:22:50;16.17;74.67
13796;SHT30;40911;51.552;9.874;2023-08-31T09:25:18;16.26;74.23
13796;SHT30;40911;51.552;9.874;2023-08-31T09:27:42;16.57;73.77
13796;SHT30;40911;51.552;9.874;2023-08-31T09:30:06;16.70;74.06
13796;SHT30;40911;51.552;9.874;2023-08-31T09:32:28;16.63;72.63
13796;SHT30;40911;51.552;9.874;2023-08-31T09:34:50;17.52;72.56
13796;SHT30;40911;51.552;9.874;2023-08-31T09:37:17;16.71;71.99
13796;SHT30;40911;51.552;9.874;2023-08-31T09:39:39;16.90;73.20
13796;SHT30;40911;51.552;9.874;2023-08-31T09:42:01;16.68;73.30
13796;SHT30;40911;51.552;9.874;2023-08-31T09:44:54;16.78;72.55
13796;SHT30;40911;51.552;9.874;2023-08-31T09:50:50;17.16;71.53
13796;SHT30;40911;51.552;9.874;2023-08-31T09:55:57;17.97;70.63
13796;SHT30;40911;51.552;9.874;2023-08-31T09:58:20;17.24;71.02
13796;SHT30;40911;51.552;9.874;2023-08-31T10:00:44;17.60;70.53
13796;SHT30;40911;51.552;9.874;2023-08-31T10:03:07;17.79;70.54
13796;SHT30;40911;51.552;9.874;2023-08-31T10:05:30;18.14;71.00
13796;SHT30;40911;51.552;9.874;2023-08-31T10:07:53;17.77;70.18
13796;SHT30;40911;51.552;9.874;2023-08-31T10:10:16;17.24;71.03
13796;SHT30;40911;51.552;9.874;2023-08-31T10:12:38;16.74;70.78
13796;SHT30;40911;51.552;9.874;2023-08-31T10:15:15;16.66;71.21
13796;SHT30;40911;51.552;9.874;2023-08-31T10:17:52;16.60;70.63
13796;SHT30;40911;51.552;9.874;2023-08-31T10:20:16;16.87;71.60
13796;SHT30;40911;51.552;9.874;2023-08-31T10:22:38;16.64;70.86
13796;SHT30;40911;51.552;9.874;2023-08-31T10:25:10;17.01;69.93
13796;SHT30;40911;51.552;9.874;2023-08-31T10:28:06;17.05;69.51
13796;SHT30;40911;51.552;9.874;2023-08-31T10:37:29;17.56;70.68
13796;SHT30;40911;51.552;9.874;2023-08-31T10:40:06;17.16;69.25
13796;SHT30;40911;51.552;9.874;2023-08-31T10:42:30;17.16;70.01
13796;SHT30;40911;51.552;9.874;2023-08-31T10:48:49;17.21;69.15
13796;SHT30;40911;51.552;9.874;2023-08-31T10:51:16;16.85;69.05
13796;SHT30;40911;51.552;9.874;2023-08-31T10:53:40;16.66;71.35
13796;SHT30;40911;51.552;9.874;2023-08-31T10:56:11;16.18;75.84
13796;SHT30;40911;51.552;9.874;2023-08-31T10:58:33;15.98;76.96
13796;SHT30;40911;51.552;9.874;2023-08-31T11:00:55;15.61;79.95
13796;SHT30;40911;51.552;9.874;2023-08-31T11:03:17;15.05;82.96
13796;SHT30;40911;51.552;9.874;2023-08-31T11:05:50;14.36;85.96
13796;SHT30;40911;51.552;9.874;2023-08-31T11:08:11;14.67;86.95
13796;SHT30;40911;51.552;9.874;2023-08-31T11:10:34;14.61;87.48
13796;SHT30;40911;51.552;9.874;2023-08-31T11:12:56;14.36;88.72
13796;SHT30;40911;51.552;9.874;2023-08-31T11:15:23;14.33;88.28
13796;SHT30;40911;51.552;9.874;2023-08-31T11:17:46;14.08;87.84
13796;SHT30;40911;51.552;9.874;2023-08-31T11:20:12;13.92;88.30
13796;SHT30;40911;51.552;9.874;2023-08-31T11:22:34;13.91;89.36
13796;SHT30;40911;51.552;9.874;2023-08-31T11:24:59;13.53;88.69
13796;SHT30;40911;51.552;9.874;2023-08-31T11:27:22;13.29;88.88
13796;SHT30;40911;51.552;9.874;2023-08-31T11:29:44;13.29;89.80
13796;SHT30;40911;51.552;9.874;2023-08-31T11:32:06;13.34;90.18
13796;SHT30;40911;51.552;9.874;2023-08-31T11:34:28;13.47;90.66
13796;SHT30;40911;51.552;9.874;2023-08-31T11:36:50;13.71;89.17
13796;SHT30;40911;51.552;9.874;2023-08-31T11:39:12;13.98;89.75
13796;SHT30;40911;51.552;9.874;2023-08-31T11:41:33;13.85;90.00
13796;SHT30;40911;51.552;9.874;2023-08-31T11:43:58;13.67;89.82
13796;SHT30;40911;51.552;9.874;2023-08-31T11:46:20;13.75;91.37
13796;SHT30;40911;51.552;9.874;2023-08-31T11:48:42;13.85;90.03
13796;SHT30;40911;51.552;9.874;2023-08-31T11:51:04;14.06;89.25
13796;SHT30;40911;51.552;9.874;2023-08-31T11:53:26;14.22;89.44
13796;SHT30;40911;51.552;9.874;2023-08-31T11:55:50;14.44;89.16
13796;SHT30;40911;51.552;9.874;2023-08-31T11:58:13;15.31;86.68
13796;SHT30;40911;51.552;9.874;2023-08-31T12:00:37;15.52;84.22
13796;SHT30;40911;51.552;9.874;2023-08-31T12:02:59;15.44;85.46
13796;SHT30;40911;51.552;9.874;2023-08-31T12:05:22;15.73;86.08
13796;SHT30;40911;51.552;9.874;2023-08-31T12:07:44;15.64;86.73
13796;SHT30;40911;51.552;9.874;2023-08-31T12:10:07;15.38;85.09
13796;SHT30;40911;51.552;9.874;2023-08-31T12:12:30;15.50;82.94
13796;SHT30;40911;51.552;9.874;2023-08-31T12:15:01;15.50;85.26
13796;SHT30;40911;51.552;9.874;2023-08-31T12:17:25;15.63;85.93
13796;SHT30;40911;51.552;9.874;2023-08-31T12:19:47;15.77;84.36
13796;SHT30;40911;51.552;9.874;2023-08-31T12:22:09;15.61;84.66
13796;SHT30;40911;51.552;9.874;2023-08-31T12:24:42;15.56;86.99
13796;SHT30;40911;51.552;9.874;2023-08-31T12:27:04;15.66;86.12
13796;SHT30;40911;51.552;9.874;2023-08-31T12:29:26;15.69;85.85
13796;SHT30;40911;51.552;9.874;2023-08-31T12:31:47;15.85;85.67
13796;SHT30;40911;51.552;9.874;2023-08-31T12:34:11;15.92;86.30
13796;SHT30;40911;51.552;9.874;2023-08-31T12:36:32;16.17;85.48
13796;SHT30;40911;51.552;9.874;2023-08-31T12:38:57;16.09;84.20
13796;SHT30;40911;51.552;9.874;2023-08-31T12:41:21;16.55;84.76
13796;SHT30;40911;51.552;9.874;2023-08-31T12:43:43;16.53;83.16
13796;SHT30;40911;51.552;9.874;2023-08-31T12:46:04;16.25;82.39
13796;SHT30;40911;51.552;9.874;2023-08-31T12:48:26;16.55;83.32
13796;SHT30;40911;51.552;9.874;2023-08-31T12:50:50;16.36;83.24
13796;SHT30;40911;51.552;9.874;2023-08-31T12:53:13;16.14;84.47
13796;SHT30;40911;51.552;9.874;2023-08-31T12:55:35;15.97;81.21
13796;SHT30;40911;51.552;9.874;2023-08-31T12:57:57;15.97;82.84
13796;SHT30;40911;51.552;9.874;2023-08-31T13:00:19;16.01;83.05
13796;SHT30;40911;51.552;9.874;2023-08-31T13:02:41;16.01;84.29
13796;SHT30;40911;51.552;9.874;2023-08-31T13:05:06;15.88;82.50
13796;SHT30;40911;51.552;9.874;2023-08-31T13:07:30;15.74;82.18
13796;SHT30;40911;51.552;9.874;2023-08-31T13:09:53;15.73;81.82
13796;SHT30;40911;51.552;9.874;2023-08-31T13:12:15;15.49;81.46
13796;SHT30;40911;51.552;9.874;2023-08-31T13:14:37;15.46;82.86
13796;SHT30;40911;51.552;9.874;2023-08-31T13:16:59;15.50;82.84
13796;SHT30;40911;51.552;9.874;2023-08-31T13:19:21;15.60;83.16
13796;SHT30;40911;51.552;9.874;2023-08-31T13:21:43;15.56;82.38
13796;SHT30;40911;51.552;9.874;2023-08-31T13:24:08;15.61;82.62
13796;SHT30;40911;51.552;9.874;2023-08-31T13:26:47;15.52;83.11
13796;SHT30;40911;51.552;9.874;2023-08-31T13:29:10;15.47;84.56
13796;SHT30;40911;51.552;9.874;2023-08-31T13:31:31;15.44;83.94
13796;SHT30;40911;51.552;9.874;2023-08-31T13:33:54;15.43;85.02
13796;SHT30;40911;51.552;9.874;2023-08-31T13:36:15;15.44;85.05
13796;SHT30;40911;51.552;9.874;2023-08-31T13:38:37;15.53;85.62
13796;SHT30;40911;51.552;9.874;2023-08-31T13:41:07;15.71;86.64
13796;SHT30;40911;51.552;9.874;2023-08-31T13:43:29;15.84;84.88
13796;SHT30;40911;51.552;9.874;2023-08-31T13:45:51;15.99;83.73
13796;SHT30;40911;51.552;9.874;2023-08-31T13:48:14;16.15;82.71
13796;SHT30;40911;51.552;9.874;2023-08-31T13:50:36;16.33;83.45
13796;SHT30;40911;51.552;9.874;2023-08-31T13:52:57;16.32;83.26
13796;SHT30;40911;51.552;9.874;2023-08-31T13:55:19;16.22;83.22
13796;SHT30;40911;51.552;9.874;2023-08-31T13:57:44;16.30;82.05
13796;SHT30;40911;51.552;9.874;2023-08-31T14:00:06;16.32;82.12
13796;SHT30;40911;51.552;9.874;2023-08-31T14:02:30;16.26;81.41
13796;SHT30;40911;51.552;9.874;2023-08-31T14:04:53;16.18;82.12
13796;SHT30;40911;51.552;9.874;2023-08-31T14:07:17;16.26;81.06
13796;SHT30;40911;51.552;9.874;2023-08-31T14:09:39;16.21;83.03
13796;SHT30;40911;51.552;9.874;2023-08-31T14:12:00;16.08;81.75
13796;SHT30;40911;51.552;9.874;2023-08-31T14:14:27;16.28;80.67
13796;SHT30;40911;51.552;9.874;2023-08-31T14:16:49;16.24;82.68
13796;SHT30;40911;51.552;9.874;2023-08-31T14:19:16;16.56;81.63
13796;SHT30;40911;51.552;9.874;2023-08-31T14:21:40;17.36;79.27
13796;SHT30;40911;51.552;9.874;2023-08-31T14:24:02;17.01;82.03
13796;SHT30;40911;51.552;9.874;2023-08-31T14:26:25;16.61;80.46
13796;SHT30;40911;51.552;9.874;2023-08-31T14:28:47;16.55;79.96
13796;SHT30;40911;51.552;9.874;2023-08-31T14:31:10;16.73;79.34
13796;SHT30;40911;51.552;9.874;2023-08-31T14:33:32;16.88;80.64
13796;SHT30;40911;51.552;9.874;2023-08-31T14:35:54;16.78;78.55
13796;SHT30;40911;51.552;9.874;2023-08-31T14:38:20;16.63;79.54
13796;SHT30;40911;51.552;9.874;2023-08-31T14:40:52;16.81;79.63
13796;SHT30;40911;51.552;9.874;2023-08-31T14:43:13;16.84;78.78
13796;SHT30;40911;51.552;9.874;2023-08-31T14:46:05;16.95;80.27
13796;SHT30;40911;51.552;9.874;2023-08-31T14:48:28;17.32;79.11
13796;SHT30;40911;51.552;9.874;2023-08-31T14:50:50;18.75;78.97
13796;SHT30;40911;51.552;9.874;2023-08-31T14:53:12;18.97;75.25
13796;SHT30;40911;51.552;9.874;2023-08-31T14:55:56;18.69;75.23
13796;SHT30;40911;51.552;9.874;2023-08-31T14:58:25;19.15;73.61
13796;SHT30;40911;51.552;9.874;2023-08-31T15:00:47;19.63;71.74
13796;SHT30;40911;51.552;9.874;2023-08-31T15:03:08;19.93;70.98
13796;SHT30;40911;51.552;9.874;2023-08-31T15:05:32;19.59;72.04
13796;SHT30;40911;51.552;9.874;2023-08-31T15:07:54;19.62;70.63
13796;SHT30;40911;51.552;9.874;2023-08-31T15:10:16;19.77;71.10
13796;SHT30;40911;51.552;9.874;2023-08-31T15:12:38;19.80;71.41
13796;SHT30;40911;51.552;9.874;2023-08-31T15:15:08;20.20;69.85
13796;SHT30;40911;51.552;9.874;2023-08-31T15:17:45;20.17;70.30
13796;SHT30;40911;51.552;9.874;2023-08-31T15:20:08;20.22;69.04
13796;SHT30;40911;51.552;9.874;2023-08-31T15:22:31;19.42;71.24
13796;SHT30;40911;51.552;9.874;2023-08-31T15:24:56;19.79;69.47